Time;durP1;ratioP1;P1;durP2;ratioP2;P2;SDS_P1;SDS_P2;PMS_P1;PMS_P2;Temp;Humidity;BMP_temperature;BMP_pressure;BME280_temperature;BME280_humidity;BME280_pressure;Samples;Min_cycle;Max_cycle;Signal;HPM_P1;HPM_P2
2022/02/03 00:03:47;;;;;;;28.02;3.33;;;;;;;3.97;100.00;101766.13;10157838;28;20135;-64
2022/02/03 00:24:28;;;;;;;24.10;3.72;;;;;;;4.22;100.00;101767.56;10133058;28;20047;-64
2022/02/03 00:29:46;;;;;;;24.60;3.42;;;;;;;4.24;100.00;101768.13;10139428;28;20050;-64
2022/02/03 00:35:05;;;;;;;17.48;4.05;;;;;;;4.19;100.00;101754.53;10149727;28;20137;-64
2022/02/03 00:50:34;;;;;;;23.13;2.90;;;;;;;4.24;100.00;101743.75;10134772;28;20149;-63
2022/02/03 00:55:36;;;;;;;16.17;2.85;;;;;;;4.32;100.00;101729.81;10138459;28;20062;-66
2022/02/03 01:00:34;;;;;;;19.55;3.45;;;;;;;4.29;100.00;101727.59;10146360;28;20496;-63
2022/02/03 01:05:31;;;;;;;19.15;2.92;;;;;;;4.35;100.00;101717.66;10146709;28;20105;-63
2022/02/03 01:10:32;;;;;;;20.20;3.35;;;;;;;4.40;100.00;101715.00;10144191;28;20488;-63
2022/02/03 01:46:55;;;;;;;20.20;3.05;;;;;;;4.55;100.00;101690.00;10158070;28;20085;-66
2022/02/03 01:51:56;;;;;;;;;;;;;;;4.66;100.00;101690.94;10156263;28;20057;-66
2022/02/03 01:57:10;;;;;;;19.77;3.22;;;;;;;4.59;100.00;101686.50;10147674;28;19953;-66
2022/02/03 02:02:08;;;;;;;17.05;2.78;;;;;;;4.63;100.00;101667.88;10172161;28;20503;-64
2022/02/03 02:07:23;;;;;;;23.35;3.53;;;;;;;4.67;100.00;101666.31;10170986;28;20081;-65
2022/02/03 02:12:43;;;;;;;19.60;2.95;;;;;;;4.63;100.00;101652.44;10193432;28;20500;-65
2022/02/03 02:18:13;;;;;;;15.65;2.95;;;;;;;4.71;100.00;101634.09;10150977;28;20050;-66
2022/02/03 02:40:00;;;;;;;20.08;3.35;;;;;;;4.74;100.00;101615.44;10142632;28;20051;-65
2022/02/03 02:44:59;;;;;;;20.02;3.75;;;;;;;4.75;100.00;101613.53;10169868;28;20085;-65
2022/02/03 02:50:06;;;;;;;23.73;4.32;;;;;;;4.73;100.00;101604.84;10151827;28;20092;-64
2022/02/03 02:55:25;;;;;;;14.27;2.72;;;;;;;4.74;100.00;101601.91;10147633;28;20453;-67
2022/02/03 03:32:43;;;;;;;18.58;3.35;;;;;;;4.96;100.00;101549.50;10139410;28;20062;-66
2022/02/03 03:37:49;;;;;;;26.98;4.55;;;;;;;5.02;100.00;101549.28;10149283;28;20134;-65
2022/02/03 03:42:54;;;;;;;22.25;3.58;;;;;;;5.06;100.00;101549.59;10154931;28;20074;-65
2022/02/03 03:47:57;;;;;;;19.48;4.10;;;;;;;5.06;100.00;101538.75;10156344;28;20094;-66
2022/02/03 03:53:02;;;;;;;18.00;4.50;;;;;;;5.15;100.00;101537.19;10159760;28;20515;-67
2022/02/03 04:53:26;;;;;;;16.10;5.97;;;;;;;5.37;100.00;101501.78;10127088;28;20047;-67
2022/02/03 05:15:21;;;;;;;19.58;7.60;;;;;;;5.36;100.00;101466.78;10130684;28;20069;-68
2022/02/03 05:26:26;;;;;;;20.58;5.55;;;;;;;5.28;100.00;101455.34;10134698;28;20042;-67
2022/02/03 05:43:10;;;;;;;23.60;6.03;;;;;;;5.13;100.00;101444.44;10148002;28;20042;-73
2022/02/03 05:48:37;;;;;;;25.08;7.45;;;;;;;5.14;100.00;101443.34;10139183;28;20483;-73
2022/02/03 06:09:37;;;;;;;19.02;7.25;;;;;;;5.17;100.00;101415.72;10146156;28;20073;-74
2022/02/03 06:14:40;;;;;;;;;;;;;;;5.21;100.00;101405.97;10144632;28;20046;-72
2022/02/03 06:30:21;;;;;;;16.63;8.80;;;;;;;5.30;100.00;101391.94;10141013;28;20053;-73
2022/02/03 06:35:17;;;;;;;22.80;8.43;;;;;;;5.35;100.00;101383.81;10142862;28;20861;-73
2022/02/03 06:40:15;;;;;;;17.55;8.40;;;;;;;5.38;100.00;101388.69;10143076;28;20050;-73
2022/02/03 06:45:18;;;;;;;17.88;8.85;;;;;;;5.40;100.00;101378.38;10147590;28;20042;-74
2022/02/03 06:50:20;;;;;;;24.35;9.50;;;;;;;5.47;100.00;101370.81;10145162;28;20082;-73
2022/02/03 06:55:30;;;;;;;22.47;8.07;;;;;;;5.46;100.00;101366.47;10141730;28;20100;-73
2022/02/03 07:00:33;;;;;;;19.58;8.43;;;;;;;5.50;100.00;101364.88;10128687;28;20051;-73
2022/02/03 07:05:30;;;;;;;;;;;;;;;5.50;100.00;101354.03;10142628;28;20050;-73
2022/02/03 07:10:26;;;;;;;19.38;9.55;;;;;;;5.49;100.00;101357.81;10138466;28;20413;-73
2022/02/03 07:15:25;;;;;;;14.90;8.95;;;;;;;5.58;100.00;101353.47;10148478;28;20541;-73
2022/02/03 07:20:24;;;;;;;18.85;9.05;;;;;;;5.65;100.00;101350.50;10163655;28;20444;-73
2022/02/03 07:25:21;;;;;;;21.02;10.23;;;;;;;5.69;100.00;101347.00;10141992;28;20100;-73
2022/02/03 07:30:17;;;;;;;20.73;10.43;;;;;;;5.76;100.00;101337.78;10145770;28;20081;-73
2022/02/03 07:35:14;;;;;;;21.83;10.48;;;;;;;5.83;100.00;101335.63;10145453;28;20085;-72
2022/02/03 07:40:11;;;;;;;19.42;10.18;;;;;;;5.88;100.00;101338.31;10146282;28;20100;-73
2022/02/03 07:45:08;;;;;;;19.30;11.27;;;;;;;5.89;100.00;101329.09;10142447;28;20050;-72
2022/02/03 07:50:05;;;;;;;20.17;11.45;;;;;;;5.90;100.00;101339.69;10145010;28;20508;-71
2022/02/03 07:55:01;;;;;;;21.58;11.05;;;;;;;5.96;100.00;101339.69;10150640;28;20452;-71
2022/02/03 07:59:58;;;;;;;21.98;11.73;;;;;;;6.05;100.00;101338.88;10157492;28;20046;-74
2022/02/03 08:04:56;;;;;;;21.92;12.07;;;;;;;6.11;100.00;101348.66;10180307;28;20121;-72
2022/02/03 08:10:07;;;;;;;25.15;13.63;;;;;;;6.16;100.00;101336.19;10162410;28;20551;-75
2022/02/03 08:15:04;;;;;;;27.35;13.95;;;;;;;6.12;100.00;101341.31;10186626;28;20113;-73
2022/02/03 08:20:06;;;;;;;28.42;14.15;;;;;;;6.21;100.00;101330.72;10137862;28;20085;-74
2022/02/03 08:25:25;;;;;;;33.80;16.55;;;;;;;6.24;100.00;101336.44;10157068;28;20042;-73
2022/02/03 08:30:46;;;;;;;33.10;15.90;;;;;;;6.25;100.00;101327.19;10134452;28;20269;-73
2022/02/03 08:35:47;;;;;;;35.88;18.50;;;;;;;6.32;100.00;101333.16;10152949;28;20125;-75
2022/02/03 08:45:41;;;;;;;33.00;15.77;;;;;;;6.38;100.00;101320.38;10141498;28;20077;-73
2022/02/03 08:50:39;;;;;;;31.48;15.73;;;;;;;6.43;100.00;101317.66;10139597;28;20062;-74
2022/02/03 08:55:52;;;;;;;31.95;16.10;;;;;;;6.46;100.00;101306.25;10134684;28;20070;-74
2022/02/03 09:50:12;;;;;;;35.65;19.50;;;;;;;6.88;100.00;101290.63;10139650;28;20137;-74
2022/02/03 09:53:39;;;;;;;32.92;19.65;;;;;;;6.94;100.00;101286.78;10149280;28;20519;-73
2022/02/03 09:58:40;;;;;;;28.50;16.38;;;;;;;6.92;100.00;101297.94;10147669;28;20133;-73
2022/02/03 10:08:37;;;;;;;30.80;17.00;;;;;;;7.01;100.00;101290.00;10144211;28;20134;-73
2022/02/03 10:13:45;;;;;;;33.22;17.23;;;;;;;7.03;100.00;101281.56;10149199;28;20077;-73
2022/02/03 10:18:42;;;;;;;38.22;19.10;;;;;;;7.09;100.00;101286.69;10144284;28;20637;-73
2022/02/03 10:24:00;;;;;;;43.90;21.52;;;;;;;7.15;100.00;101276.63;10148273;28;20046;-73
2022/02/03 10:28:58;;;;;;;48.70;24.25;;;;;;;7.14;100.00;101288.56;10146616;28;20065;-74
2022/02/03 10:34:08;;;;;;;56.88;25.23;;;;;;;7.14;100.00;101272.25;10142437;28;20042;-68
2022/02/03 10:39:37;;;;;;;56.53;27.00;;;;;;;7.20;100.00;101265.69;10152497;28;20397;-68
2022/02/03 11:00:26;;;;;;;58.90;29.67;;;;;;;7.28;100.00;101248.75;10156997;28;20563;-68
2022/02/03 11:15:25;;;;;;;60.10;29.65;;;;;;;7.37;100.00;101238.91;10147982;28;20077;-67
2022/02/03 11:20:25;;;;;;;53.15;23.73;;;;;;;7.36;100.00;101241.94;10150410;28;20050;-67
2022/02/03 11:25:43;;;;;;;51.83;28.17;;;;;;;7.41;100.00;101238.38;10151127;28;20054;-67
2022/02/03 11:36:16;;;;;;;47.63;25.73;;;;;;;7.41;100.00;101232.91;10151764;28;20050;-67
2022/02/03 11:47:09;;;;;;;44.58;22.95;;;;;;;7.35;100.00;101226.69;10157363;28;20464;-67
2022/02/03 11:57:58;;;;;;;44.42;23.38;;;;;;;7.19;100.00;101209.66;10157457;28;20056;-66
2022/02/03 12:03:18;;;;;;;46.22;24.15;;;;;;;7.16;100.00;101210.25;10159054;28;20121;-66
2022/02/03 12:19:03;;;;;;;42.95;21.88;;;;;;;7.09;100.00;101182.56;10175287;28;20074;-66
2022/02/03 12:29:23;;;;;;;43.83;22.50;;;;;;;7.04;100.00;101190.75;10169552;28;20050;-66
2022/02/03 12:39:56;;;;;;;42.30;21.73;;;;;;;7.08;100.00;101178.22;10163945;28;20480;-67
2022/02/03 12:45:02;;;;;;;40.17;22.02;;;;;;;7.09;100.00;101171.69;10180309;28;20045;-66
2022/02/03 12:50:13;;;;;;;40.28;20.95;;;;;;;7.09;100.00;101163.53;10175797;28;20078;-66
2022/02/03 12:55:25;;;;;;;40.67;21.38;;;;;;;7.14;100.00;101136.28;10149899;28;20490;-66
2022/02/03 13:00:30;;;;;;;32.30;16.92;;;;;;;7.08;100.00;101127.38;10153096;28;20137;-66
2022/02/03 13:05:52;;;;;;;37.33;19.90;;;;;;;7.05;100.00;101138.78;10147955;28;20464;-66
2022/02/03 13:10:53;;;;;;;36.05;20.55;;;;;;;7.08;100.00;101126.56;10148908;28;20101;-66
2022/02/03 13:15:50;;;;;;;38.90;19.45;;;;;;;7.07;100.00;101122.19;10144794;28;20128;-68
2022/02/03 13:21:18;;;;;;;31.08;17.35;;;;;;;7.00;100.00;101114.38;10147994;28;20566;-66
2022/02/03 13:26:11;;;;;;;32.80;18.30;;;;;;;7.02;100.00;101111.38;10147386;28;20121;-67
2022/02/03 13:31:34;;;;;;;33.55;17.80;;;;;;;7.02;100.00;101105.94;10153602;28;20222;-66
2022/02/03 13:36:34;;;;;;;36.92;17.98;;;;;;;7.00;100.00;101108.13;10155867;28;20124;-67
2022/02/03 13:41:38;;;;;;;31.05;17.02;;;;;;;6.94;100.00;101108.16;10160485;28;20073;-66
2022/02/03 13:46:37;;;;;;;36.33;18.95;;;;;;;6.93;100.00;101098.38;10157576;28;20461;-65
2022/02/03 13:51:38;;;;;;;32.63;18.67;;;;;;;6.99;100.00;101101.06;10150608;28;20672;-65
2022/02/03 14:26:49;;;;;;;25.38;14.50;;;;;;;6.99;100.00;101058.38;10160724;28;20070;-65
2022/02/03 14:28:41;;;;;;;24.83;13.80;;;;;;;7.01;100.00;101052.63;10170401;28;20082;-65
2022/02/03 14:33:41;;;;;;;22.20;13.45;;;;;;;6.84;100.00;101051.16;10175414;28;20112;-66
2022/02/03 14:38:47;;;;;;;29.17;14.10;;;;;;;6.88;100.00;101045.97;10167420;28;20125;-66
2022/02/03 14:43:44;;;;;;;23.35;13.25;;;;;;;6.90;100.00;101033.72;10152053;28;20054;-65
2022/02/03 14:48:56;;;;;;;23.27;13.40;;;;;;;6.94;100.00;101023.91;10163728;28;20052;-65
2022/02/03 14:54:19;;;;;;;24.05;14.20;;;;;;;6.98;100.00;100996.13;10192667;28;20157;-65
2022/02/03 14:59:12;;;;;;;24.33;14.38;;;;;;;6.94;100.00;101013.03;10152630;28;20049;-65
2022/02/03 15:04:12;;;;;;;25.55;14.65;;;;;;;6.97;100.00;100999.97;10192119;28;20053;-66
2022/02/03 15:14:10;;;;;;;21.30;14.70;;;;;;;6.98;100.00;101002.38;10178623;28;20423;-66
2022/02/03 15:19:07;;;;;;;25.08;15.27;;;;;;;7.00;100.00;100999.38;10182198;28;20074;-66
2022/02/03 15:24:04;;;;;;;20.02;13.60;;;;;;;7.00;100.00;100994.75;10164017;28;20516;-66
2022/02/03 15:29:00;;;;;;;21.33;13.20;;;;;;;6.99;100.00;100995.06;10153227;28;20130;-65
2022/02/03 15:34:21;;;;;;;23.40;12.02;;;;;;;6.87;100.00;100996.25;10153859;28;20520;-65
2022/02/03 15:39:29;;;;;;;20.75;12.93;;;;;;;6.88;100.00;100997.84;10154246;28;20105;-67
2022/02/03 15:44:26;;;;;;;22.70;11.05;;;;;;;6.93;100.00;100992.34;10157760;28;20511;-65
2022/02/03 15:49:58;;;;;;;21.73;11.75;;;;;;;6.90;100.00;100994.84;10149226;28;20049;-65
2022/02/03 16:21:19;;;;;;;20.15;11.32;;;;;;;6.80;100.00;100978.63;10160738;28;20133;-66
2022/02/03 16:52:33;;;;;;;21.20;12.45;;;;;;;6.55;100.00;100955.22;10180075;28;20046;-65
2022/02/03 16:57:30;;;;;;;24.10;15.05;;;;;;;6.53;100.00;100950.88;10151478;28;20136;-65
2022/02/03 17:02:26;;;;;;;21.90;13.90;;;;;;;6.55;100.00;100971.53;10169552;28;20129;-65
2022/02/03 17:07:24;;;;;;;22.60;15.20;;;;;;;6.54;100.00;100959.81;10162997;28;20104;-65
2022/02/03 17:12:21;;;;;;;26.15;15.90;;;;;;;6.53;100.00;100952.78;10163037;28;20050;-65
2022/02/03 17:17:20;;;;;;;22.80;16.35;;;;;;;6.54;100.00;100957.09;10161242;28;20054;-66
2022/02/03 17:22:27;;;;;;;24.02;16.23;;;;;;;6.60;100.00;100958.69;10164180;28;20073;-65
2022/02/03 17:27:30;;;;;;;21.70;13.52;;;;;;;6.65;100.00;100942.34;10161817;28;20131;-65
2022/02/03 17:54:31;;;;;;;20.80;14.65;;;;;;;6.73;100.00;100930.06;10148196;28;20703;-66
2022/02/03 18:30:13;;;;;;;23.73;16.98;;;;;;;6.53;100.00;100925.63;10145041;28;20059;-65
2022/02/03 18:35:27;;;;;;;26.15;18.38;;;;;;;6.57;100.00;100920.41;10147396;28;20046;-66
2022/02/03 18:50:57;;;;;;;29.20;17.77;;;;;;;6.53;100.00;100923.72;10143291;28;20492;-65
2022/02/03 20:13:15;;;;;;;27.08;18.08;;;;;;;6.25;100.00;100908.22;10155057;28;20138;-65
2022/02/03 20:18:12;;;;;;;27.45;17.70;;;;;;;6.23;100.00;100894.09;10146810;28;20050;-66
2022/02/03 20:23:12;;;;;;;31.20;21.00;;;;;;;6.23;100.00;100894.09;10151570;28;20476;-65
2022/02/03 20:28:09;;;;;;;29.27;18.98;;;;;;;6.21;100.00;100907.16;10144818;28;20108;-65
2022/02/03 20:33:06;;;;;;;32.03;19.45;;;;;;;6.17;100.00;100890.59;10142806;28;20054;-65
2022/02/03 20:38:03;;;;;;;33.80;21.02;;;;;;;6.18;100.00;100891.44;10148744;28;20042;-66
2022/02/03 20:42:59;;;;;;;31.17;20.67;;;;;;;6.18;100.00;100883.28;10136905;28;20065;-65
2022/02/03 20:47:56;;;;;;;36.58;22.23;;;;;;;6.18;100.00;100886.00;10148319;28;20101;-65
2022/02/03 20:52:52;;;;;;;33.90;21.90;;;;;;;6.18;100.00;100883.28;10148053;28;20047;-66
2022/02/03 20:57:49;;;;;;;32.42;19.98;;;;;;;6.09;100.00;100878.44;10145558;28;20137;-65
2022/02/03 21:03:01;;;;;;;30.70;20.98;;;;;;;6.13;100.00;100877.88;10121284;28;20051;-65
2022/02/03 21:07:58;;;;;;;33.13;21.65;;;;;;;6.17;100.00;100878.94;10137854;28;20073;-66
2022/02/03 21:12:55;;;;;;;33.00;21.35;;;;;;;6.20;100.00;100870.25;10141598;28;20046;-65
2022/02/03 21:17:54;;;;;;;31.65;20.20;;;;;;;6.17;100.00;100857.22;10126852;28;20129;-65
2022/02/03 21:22:51;;;;;;;31.67;21.58;;;;;;;6.19;100.00;100871.31;10137388;28;20533;-67
2022/02/03 21:27:52;;;;;;;33.65;23.73;;;;;;;6.13;100.00;100867.84;10145272;28;20097;-64
2022/02/03 21:32:49;;;;;;;32.78;21.27;;;;;;;6.09;100.00;100872.22;10146196;28;20046;-63
2022/02/03 21:37:48;;;;;;;35.28;22.85;;;;;;;6.16;100.00;100866.47;10138855;28;20096;-63
2022/02/03 21:42:49;;;;;;;39.55;22.85;;;;;;;6.17;100.00;100865.34;10144056;28;20050;-64
2022/02/03 21:47:46;;;;;;;37.35;23.45;;;;;;;6.17;100.00;100862.66;10139671;28;20085;-63
2022/02/03 21:52:52;;;;;;;36.75;24.23;;;;;;;6.10;100.00;100858.38;10151287;28;20078;-63
2022/02/03 21:57:53;;;;;;;36.80;25.58;;;;;;;6.18;100.00;100848.00;10160445;28;20093;-63
2022/02/03 22:02:49;;;;;;;33.83;23.60;;;;;;;6.14;100.00;100863.22;10144150;28;20137;-63
2022/02/03 22:07:46;;;;;;;38.47;23.65;;;;;;;6.19;100.00;100849.59;10142121;28;20508;-63
2022/02/03 22:12:44;;;;;;;36.72;23.45;;;;;;;6.22;100.00;100839.00;10139885;28;20461;-64
2022/02/03 22:17:41;;;;;;;37.88;21.63;;;;;;;6.20;100.00;100845.81;10155482;28;20065;-63
2022/02/03 22:28:13;;;;;;;36.08;23.52;;;;;;;6.19;100.00;100844.16;10097083;28;20129;-64
2022/02/03 22:38:57;;;;;;;37.03;25.00;;;;;;;6.18;100.00;100832.50;10135064;28;20062;-63
2022/02/03 22:44:06;;;;;;;36.03;23.92;;;;;;;6.14;100.00;100838.78;10129338;28;20081;-63
2022/02/03 22:49:07;;;;;;;38.50;24.65;;;;;;;6.18;100.00;100837.13;10139231;28;20526;-63
2022/02/03 22:54:07;;;;;;;33.88;22.10;;;;;;;6.18;100.00;100848.00;10132588;28;20101;-63
2022/02/03 22:59:30;;;;;;;35.15;21.85;;;;;;;6.16;100.00;100850.19;10148974;28;20632;-63
2022/02/03 23:04:20;;;;;;;34.30;22.20;;;;;;;6.24;100.00;100852.25;10146775;28;20144;-65
2022/02/03 23:09:48;;;;;;;37.00;24.08;;;;;;;6.25;100.00;100840.31;10134096;28;20074;-63
2022/02/03 23:19:59;;;;;;;39.33;23.35;;;;;;;6.21;100.00;100840.06;10141040;28;20070;-63
2022/02/03 23:24:55;;;;;;;34.40;22.40;;;;;;;6.24;100.00;100841.41;10175937;28;20085;-63
2022/02/03 23:29:53;;;;;;;33.47;21.40;;;;;;;6.15;100.00;100838.50;10159294;28;20160;-63
2022/02/03 23:35:03;;;;;;;37.35;21.73;;;;;;;6.23;100.00;100845.22;10148162;28;20046;-63
2022/02/03 23:40:06;;;;;;;34.40;20.92;;;;;;;6.27;100.00;100840.84;10153026;28;20608;-63
2022/02/03 23:50:33;;;;;;;35.65;22.77;;;;;;;6.16;100.00;100850.19;10147816;28;20046;-64
